createdAt,value
2022-10-01T00:01:14.880Z,7.35
2022-10-01T00:03:42.117Z,3.88
2022-10-01T00:06:13.385Z,3.87
2022-10-01T00:08:41.561Z,4.97
2022-10-01T00:11:13.088Z,6.70
2022-10-01T00:13:40.238Z,4.97
2022-10-01T00:16:09.036Z,4.47
2022-10-01T00:18:37.462Z,4.00
2022-10-01T00:21:15.466Z,5.78
2022-10-01T00:23:42.572Z,4.55
2022-10-01T00:26:14.347Z,4.10
2022-10-01T00:28:41.984Z,7.28
2022-10-01T00:31:09.759Z,3.80
2022-10-01T00:34:17.353Z,4.85
2022-10-01T00:36:43.710Z,5.40
2022-10-01T00:39:11.821Z,4.97
2022-10-01T00:41:38.479Z,5.43
2022-10-01T00:44:29.173Z,4.68
2022-10-01T00:47:01.623Z,4.28
2022-10-01T00:49:30.497Z,4.00
2022-10-01T00:52:05.584Z,4.18
2022-10-01T00:54:40.640Z,5.13
2022-10-01T00:57:07.653Z,3.90
2022-10-01T00:59:35.530Z,4.07
2022-10-01T01:02:04.560Z,4.25
2022-10-01T01:04:31.256Z,3.67
2022-10-01T01:07:03.935Z,3.83
2022-10-01T01:09:40.355Z,4.80
2022-10-01T01:12:25.530Z,3.75
2022-10-01T01:15:28.988Z,3.65
2022-10-01T01:18:06.083Z,3.15
2022-10-01T01:21:08.034Z,2.60
2022-10-01T01:23:49.412Z,5.03
2022-10-01T01:26:54.616Z,3.83
2022-10-01T01:29:43.580Z,5.43
2022-10-01T01:32:22.740Z,3.08
2022-10-01T01:34:52.447Z,3.50
2022-10-01T01:37:24.165Z,3.78
2022-10-01T01:39:53.285Z,4.90
2022-10-01T01:42:29.184Z,3.42
2022-10-01T01:44:58.845Z,3.10
2022-10-01T01:47:33.046Z,3.47
2022-10-01T01:50:02.764Z,3.50
2022-10-01T01:52:30.575Z,3.92
2022-10-01T01:54:58.185Z,2.58
2022-10-01T01:57:25.279Z,4.32
2022-10-01T01:59:53.817Z,5.73
2022-10-01T02:02:33.363Z,2.28
2022-10-01T02:05:03.538Z,2.42
2022-10-01T02:07:54.414Z,1.85
2022-10-01T02:10:59.861Z,3.65
2022-10-01T02:13:54.171Z,2.80
2022-10-01T02:16:28.044Z,2.47
2022-10-01T02:19:05.528Z,3.42
2022-10-01T02:21:47.288Z,2.00
2022-10-01T02:24:22.641Z,2.00
2022-10-01T02:26:52.189Z,1.80
2022-10-01T02:29:22.190Z,2.58
2022-10-01T02:31:53.321Z,2.00
2022-10-01T02:34:24.013Z,1.50
2022-10-01T02:36:52.323Z,1.27
2022-10-01T02:39:21.579Z,1.20
2022-10-01T02:41:51.691Z,1.88
2022-10-01T02:44:23.309Z,1.08
2022-10-01T02:46:56.203Z,0.93
2022-10-01T02:49:23.551Z,0.80
2022-10-01T02:52:12.213Z,1.03
2022-10-01T02:54:47.408Z,0.40
2022-10-01T02:57:27.737Z,2.58
2022-10-01T03:00:00.254Z,0.90
2022-10-01T03:02:31.831Z,1.92
2022-10-01T03:04:59.469Z,6.43
2022-10-01T03:07:27.943Z,0.82
2022-10-01T03:09:54.809Z,1.20
2022-10-01T03:12:22.533Z,1.48
2022-10-01T03:14:49.643Z,0.57
2022-10-01T03:17:16.964Z,1.43
2022-10-01T03:19:43.402Z,1.60
2022-10-01T03:22:14.781Z,4.10
2022-10-01T03:24:41.387Z,0.80
2022-10-01T03:27:07.729Z,1.48
2022-10-01T03:29:34.232Z,0.63
2022-10-01T03:32:04.084Z,0.90
2022-10-01T03:34:30.622Z,0.80
2022-10-01T03:36:56.985Z,1.08
2022-10-01T03:39:23.336Z,1.88
2022-10-01T03:41:50.004Z,0.80
2022-10-01T03:44:16.382Z,0.95
2022-10-01T03:46:43.755Z,2.08
2022-10-01T03:49:10.652Z,1.15
2022-10-01T03:51:44.829Z,1.17
2022-10-01T03:54:16.717Z,1.00
2022-10-01T03:56:43.314Z,1.42
2022-10-01T03:59:11.201Z,1.23
2022-10-01T04:01:39.372Z,2.20
2022-10-01T04:04:06.627Z,1.05
2022-10-01T04:06:33.335Z,1.30
2022-10-01T04:08:59.843Z,1.23
2022-10-01T04:11:29.028Z,2.00
2022-10-01T04:13:57.750Z,4.65
2022-10-01T04:16:24.902Z,1.30
2022-10-01T04:18:51.486Z,1.43
2022-10-01T04:21:18.005Z,2.47
2022-10-01T04:23:44.487Z,2.03
2022-10-01T04:26:11.084Z,2.08
2022-10-01T04:28:37.517Z,1.80
2022-10-01T04:31:22.602Z,1.40
2022-10-01T04:33:49.269Z,1.30
2022-10-01T04:36:15.955Z,1.85
2022-10-01T04:38:42.853Z,2.13
2022-10-01T04:41:09.781Z,2.30
2022-10-01T04:43:36.840Z,1.90
2022-10-01T04:46:03.198Z,2.20
2022-10-01T04:48:29.703Z,2.92
2022-10-01T04:50:56.056Z,2.53
2022-10-01T04:53:22.446Z,2.40
2022-10-01T04:55:48.845Z,3.50
2022-10-01T04:58:15.483Z,2.63
2022-10-01T05:00:41.896Z,2.65
2022-10-01T05:03:08.314Z,2.78
2022-10-01T05:05:35.319Z,3.03
2022-10-01T05:08:02.255Z,2.80
2022-10-01T05:10:29.789Z,2.67
2022-10-01T05:12:57.939Z,2.40
2022-10-01T05:15:24.457Z,3.00
2022-10-01T05:17:51.031Z,3.88
2022-10-01T05:20:20.473Z,2.60
2022-10-01T05:22:48.966Z,2.28
2022-10-01T05:25:17.244Z,3.47
2022-10-01T05:27:44.533Z,3.10
2022-10-01T05:30:13.036Z,3.20
2022-10-01T05:32:39.929Z,3.47
2022-10-01T05:35:07.745Z,5.45
2022-10-01T05:37:34.949Z,3.30
2022-10-01T05:40:01.852Z,3.45
2022-10-01T05:42:28.213Z,3.20
2022-10-01T05:44:56.240Z,3.30
2022-10-01T05:47:22.940Z,3.42
2022-10-01T05:49:49.539Z,3.13
2022-10-01T05:52:16.489Z,3.67
2022-10-01T05:54:43.043Z,3.95
2022-10-01T05:57:09.595Z,3.47
2022-10-01T05:59:36.232Z,5.82
2022-10-01T06:02:04.320Z,4.95
2022-10-01T06:04:41.053Z,3.90
2022-10-01T06:07:07.884Z,4.45
2022-10-01T06:09:34.251Z,3.90
2022-10-01T06:12:00.945Z,4.68
2022-10-01T06:14:27.601Z,6.95
2022-10-01T06:16:54.714Z,3.22
2022-10-01T06:19:21.201Z,4.60
2022-10-01T06:21:47.720Z,5.00
2022-10-01T06:24:14.492Z,3.85
2022-10-01T06:26:41.033Z,4.28
2022-10-01T06:29:07.553Z,4.63
2022-10-01T06:31:34.158Z,4.57
2022-10-01T06:34:00.926Z,4.73
2022-10-01T06:36:27.508Z,3.90
2022-10-01T06:38:53.878Z,3.53
2022-10-01T06:41:20.260Z,5.13
2022-10-01T06:43:48.772Z,7.45
2022-10-01T06:46:15.213Z,7.13
2022-10-01T06:48:41.765Z,5.00
2022-10-01T06:51:08.660Z,3.75
2022-10-01T06:53:35.092Z,4.18
2022-10-01T06:56:07.118Z,4.30
2022-10-01T06:58:34.059Z,3.47
2022-10-01T07:01:03.520Z,4.22
2022-10-01T07:03:31.371Z,6.75
2022-10-01T07:06:04.793Z,3.83
2022-10-01T07:08:31.180Z,7.80
2022-10-01T07:11:05.127Z,3.30
2022-10-01T07:13:31.552Z,3.22
2022-10-01T07:15:58.000Z,5.22
2022-10-01T07:18:24.384Z,3.63
2022-10-01T07:20:51.160Z,5.50
2022-10-01T07:23:17.768Z,7.50
2022-10-01T07:25:44.910Z,3.55
2022-10-01T07:28:18.321Z,4.28
2022-10-01T07:31:06.640Z,2.38
2022-10-01T07:33:33.478Z,3.20
2022-10-01T07:36:03.799Z,2.97
2022-10-01T07:38:30.501Z,4.00
2022-10-01T07:40:58.523Z,3.80
2022-10-01T07:43:25.156Z,2.55
2022-10-01T07:45:55.210Z,5.35
2022-10-01T07:48:21.852Z,4.80
2022-10-01T07:50:48.335Z,4.25
2022-10-01T07:53:15.264Z,3.50
2022-10-01T07:55:41.852Z,2.60
2022-10-01T07:58:09.651Z,5.25
2022-10-01T08:00:36.318Z,5.87
2022-10-01T08:03:02.922Z,4.20
2022-10-01T08:05:31.995Z,2.13
2022-10-01T08:08:00.448Z,3.55
2022-10-01T08:10:27.555Z,4.72
2022-10-01T08:13:00.532Z,2.23
2022-10-01T08:15:27.236Z,2.03
2022-10-01T08:17:53.585Z,4.32
2022-10-01T08:20:21.595Z,3.28
2022-10-01T08:22:48.096Z,3.50
2022-10-01T08:25:15.147Z,4.10
2022-10-01T08:27:41.743Z,4.10
2022-10-01T08:30:08.728Z,5.45
2022-10-01T08:32:35.109Z,2.25
2022-10-01T08:35:01.494Z,2.10
2022-10-01T08:37:29.239Z,1.60
2022-10-01T08:39:56.738Z,2.60
2022-10-01T08:42:38.055Z,6.03
2022-10-01T08:45:11.414Z,3.65
2022-10-01T08:47:42.469Z,4.78
2022-10-01T08:50:22.707Z,4.40
2022-10-01T08:53:02.847Z,4.97
2022-10-01T08:55:36.337Z,5.93
2022-10-01T08:58:06.428Z,7.05
2022-10-01T09:00:40.184Z,4.88
2022-10-01T09:03:10.563Z,5.50
2022-10-01T09:06:18.189Z,3.30
2022-10-01T09:09:04.393Z,3.35
2022-10-01T09:11:52.591Z,4.82
2022-10-01T09:14:26.126Z,2.10
2022-10-01T09:16:58.011Z,2.20
2022-10-01T09:19:54.545Z,5.82
2022-10-01T09:22:48.669Z,4.68
2022-10-01T09:25:27.109Z,2.05
2022-10-01T09:28:24.213Z,5.03
2022-10-01T09:30:55.868Z,3.20
2022-10-01T09:33:25.377Z,2.58
2022-10-01T09:36:09.703Z,5.00
2022-10-01T09:38:41.692Z,4.65
2022-10-01T09:41:10.555Z,6.93
2022-10-01T09:43:39.373Z,5.83
2022-10-01T09:46:13.203Z,4.38
2022-10-01T09:49:03.248Z,7.72
2022-10-01T09:51:44.993Z,8.20
2022-10-01T09:54:36.196Z,6.43
2022-10-01T09:57:24.904Z,5.43
2022-10-01T10:00:17.387Z,10.15
2022-10-01T10:02:49.384Z,9.60
2022-10-01T10:05:17.724Z,7.43
2022-10-01T10:07:46.846Z,4.22
2022-10-01T10:10:25.914Z,2.87
2022-10-01T10:13:14.627Z,4.60
2022-10-01T10:16:00.484Z,3.00
2022-10-01T10:18:35.604Z,6.15
2022-10-01T10:21:07.456Z,7.45
2022-10-01T10:23:34.421Z,6.53
2022-10-01T10:26:03.242Z,3.53
2022-10-01T10:28:44.614Z,12.80
2022-10-01T10:31:21.209Z,6.93
2022-10-01T10:33:51.140Z,7.47
2022-10-01T10:36:19.663Z,8.30
2022-10-01T10:38:53.799Z,6.00
2022-10-01T10:41:26.306Z,10.43
2022-10-01T10:43:57.613Z,8.80
2022-10-01T10:46:34.262Z,5.10
2022-10-01T10:49:06.268Z,5.20
2022-10-01T10:51:48.657Z,12.95
2022-10-01T10:54:20.758Z,6.47
2022-10-01T10:56:55.078Z,4.93
2022-10-01T10:59:21.716Z,6.75
2022-10-01T11:01:49.439Z,3.23
2022-10-01T11:04:42.105Z,4.55
2022-10-01T11:07:11.188Z,8.73
2022-10-01T11:10:16.366Z,5.95
2022-10-01T11:13:09.052Z,7.97
2022-10-01T11:15:38.675Z,8.00
2022-10-01T11:18:25.459Z,7.75
2022-10-01T11:21:22.735Z,5.93
2022-10-01T11:23:59.157Z,5.13
2022-10-01T11:26:46.212Z,6.68
2022-10-01T11:29:26.463Z,7.00
2022-10-01T11:32:19.749Z,3.20
2022-10-01T11:34:56.908Z,3.63
2022-10-01T11:37:38.952Z,7.60
2022-10-01T11:40:17.983Z,6.72
2022-10-01T11:42:46.614Z,6.80
2022-10-01T11:45:23.483Z,6.22
2022-10-01T11:47:57.495Z,5.78
2022-10-01T11:50:29.035Z,8.65
2022-10-01T11:53:05.987Z,7.03
2022-10-01T11:55:57.667Z,5.47
2022-10-01T11:58:57.109Z,8.10
2022-10-01T12:01:23.573Z,7.40
2022-10-01T12:03:56.801Z,7.95
2022-10-01T12:06:39.798Z,7.78
2022-10-01T12:09:20.680Z,4.47
2022-10-01T12:12:01.356Z,8.07
2022-10-01T12:14:40.276Z,5.97
2022-10-01T12:17:18.808Z,4.18
2022-10-01T12:19:50.837Z,3.75
2022-10-01T12:22:24.698Z,5.20
2022-10-01T12:24:51.818Z,8.60
2022-10-01T12:27:24.036Z,7.05
2022-10-01T12:30:15.013Z,4.68
2022-10-01T12:32:41.468Z,6.30
2022-10-01T12:35:22.493Z,4.13
2022-10-01T12:38:01.666Z,6.72
2022-10-01T12:41:04.083Z,4.15
2022-10-01T12:43:58.538Z,5.93
2022-10-01T12:46:35.207Z,5.93
2022-10-01T12:49:13.743Z,7.23
2022-10-01T12:51:46.229Z,4.82
2022-10-01T12:54:45.955Z,6.30
2022-10-01T12:57:23.106Z,4.45
2022-10-01T13:00:18.165Z,4.53
2022-10-01T13:03:19.948Z,6.07
2022-10-01T13:05:55.329Z,4.90
2022-10-01T13:08:57.967Z,9.05
2022-10-01T13:11:37.460Z,6.00
2022-10-01T13:14:07.132Z,7.50
2022-10-01T13:16:42.640Z,7.23
2022-10-01T13:19:19.356Z,3.60
2022-10-01T13:22:15.587Z,4.90
2022-10-01T13:24:53.579Z,5.18
2022-10-01T13:27:35.464Z,4.10
2022-10-01T13:30:18.936Z,7.70
2022-10-01T13:32:58.597Z,8.35
2022-10-01T13:35:35.944Z,2.47
2022-10-01T13:38:30.575Z,8.23
2022-10-01T13:41:03.262Z,7.15
2022-10-01T13:43:31.520Z,6.63
2022-10-01T13:46:07.180Z,6.60
2022-10-01T13:48:35.415Z,5.07
2022-10-01T13:51:10.603Z,9.40
2022-10-01T13:53:47.334Z,3.70
2022-10-01T13:56:28.106Z,4.07
2022-10-01T13:58:54.696Z,10.18
2022-10-01T14:01:24.089Z,7.18
2022-10-01T14:03:57.313Z,3.38
2022-10-01T14:06:26.160Z,5.20
2022-10-01T14:09:03.384Z,6.90
2022-10-01T14:11:51.556Z,6.93
2022-10-01T14:14:52.957Z,7.03
2022-10-01T14:17:23.032Z,7.28
2022-10-01T14:19:50.983Z,5.43
2022-10-01T14:22:21.379Z,5.13
2022-10-01T14:25:12.269Z,8.07
2022-10-01T14:27:47.545Z,6.80
2022-10-01T14:30:18.528Z,5.22
2022-10-01T14:33:03.896Z,7.18
2022-10-01T14:35:36.616Z,9.20
2022-10-01T14:38:22.185Z,3.50
2022-10-01T14:40:50.564Z,6.80
2022-10-01T14:43:29.028Z,5.10
2022-10-01T14:46:04.380Z,5.13
2022-10-01T14:48:33.600Z,6.17
2022-10-01T14:51:03.085Z,3.38
2022-10-01T14:53:36.153Z,3.40
2022-10-01T14:56:12.450Z,6.28
2022-10-01T14:58:38.799Z,3.03
2022-10-01T15:01:06.584Z,4.53
2022-10-01T15:03:41.794Z,7.38
2022-10-01T15:06:41.523Z,3.63
2022-10-01T15:09:18.698Z,4.30
2022-10-01T15:11:48.609Z,4.43
2022-10-01T15:14:19.939Z,5.00
2022-10-01T15:16:46.924Z,4.75
2022-10-01T15:19:17.102Z,3.85
2022-10-01T15:21:51.072Z,4.75
2022-10-01T15:24:35.616Z,5.38
2022-10-01T15:27:02.503Z,5.70
2022-10-01T15:29:29.128Z,4.85
2022-10-01T15:31:57.453Z,5.07
2022-10-01T15:34:26.623Z,7.40
2022-10-01T15:36:54.050Z,3.20
2022-10-01T15:39:37.593Z,6.47
2022-10-01T15:42:10.197Z,6.22
2022-10-01T15:44:38.625Z,3.97
2022-10-01T15:47:20.724Z,7.70
2022-10-01T15:50:11.130Z,6.00
2022-10-01T15:52:49.831Z,4.13
2022-10-01T15:55:42.712Z,10.45
2022-10-01T15:58:23.224Z,5.57
2022-10-01T16:00:58.963Z,4.80
2022-10-01T16:03:48.804Z,7.60
2022-10-01T16:06:23.594Z,6.27
2022-10-01T16:09:02.957Z,4.63
2022-10-01T16:11:33.932Z,6.45
2022-10-01T16:14:18.912Z,4.22
2022-10-01T16:16:45.543Z,3.63
2022-10-01T16:19:28.310Z,5.77
2022-10-01T16:22:18.837Z,9.63
2022-10-01T16:24:47.725Z,3.83
2022-10-01T16:27:27.481Z,6.20
2022-10-01T16:30:09.069Z,7.47
2022-10-01T16:32:35.804Z,8.57
2022-10-01T16:35:25.159Z,5.45
2022-10-01T16:37:54.827Z,6.43
2022-10-01T16:40:24.045Z,6.35
2022-10-01T16:42:51.565Z,7.55
2022-10-01T16:45:26.935Z,8.20
2022-10-01T16:47:56.812Z,4.63
2022-10-01T16:50:24.295Z,8.77
2022-10-01T16:52:56.814Z,6.55
2022-10-01T16:55:32.426Z,11.57
2022-10-01T16:57:58.932Z,7.07
2022-10-01T17:00:27.520Z,8.27
2022-10-01T17:02:55.336Z,5.32
2022-10-01T17:05:22.868Z,5.72
2022-10-01T17:07:49.744Z,4.63
2022-10-01T17:10:18.131Z,5.20
2022-10-01T17:12:47.861Z,6.63
2022-10-01T17:15:19.816Z,6.32
2022-10-01T17:17:47.038Z,4.95
2022-10-01T17:20:13.446Z,4.72
2022-10-01T17:22:40.021Z,4.47
2022-10-01T17:25:07.458Z,3.70
2022-10-01T17:27:34.119Z,8.75
2022-10-01T17:30:00.521Z,7.35
2022-10-01T17:32:27.223Z,7.28
2022-10-01T17:34:54.394Z,3.77
2022-10-01T17:37:23.812Z,4.30
2022-10-01T17:39:50.472Z,4.15
2022-10-01T17:42:18.057Z,5.75
2022-10-01T17:44:44.784Z,3.70
2022-10-01T17:47:11.383Z,5.97
2022-10-01T17:49:37.837Z,7.93
2022-10-01T17:52:05.813Z,8.70
2022-10-01T17:54:33.203Z,4.85
2022-10-01T17:56:59.561Z,8.93
2022-10-01T17:59:26.244Z,8.10
2022-10-01T18:01:53.354Z,12.32
2022-10-01T18:04:21.692Z,15.18
2022-10-01T18:06:49.000Z,14.25
2022-10-01T18:09:15.784Z,15.07
2022-10-01T18:11:42.149Z,15.30
2022-10-01T18:14:08.566Z,21.95
2022-10-01T18:16:35.511Z,24.77
2022-10-01T18:21:49.370Z,10.88
2022-10-01T18:24:16.447Z,4.37
2022-10-01T18:26:43.254Z,5.90
2022-10-01T18:29:21.900Z,7.60
2022-10-01T18:31:53.276Z,8.50
2022-10-01T18:34:26.653Z,5.43
2022-10-01T18:37:04.379Z,7.20
2022-10-01T18:39:43.123Z,6.72
2022-10-01T18:42:19.204Z,7.88
2022-10-01T18:44:52.747Z,4.30
2022-10-01T18:47:27.942Z,7.53
2022-10-01T18:50:12.866Z,10.40
2022-10-01T18:52:54.604Z,4.60
2022-10-01T18:55:59.816Z,6.25
2022-10-01T18:59:00.812Z,4.78
2022-10-01T19:01:50.300Z,5.90
2022-10-01T19:04:43.456Z,11.43
2022-10-01T19:07:22.332Z,8.93
2022-10-01T19:10:08.648Z,7.80
2022-10-01T19:12:43.867Z,8.45
2022-10-01T19:15:28.868Z,5.88
2022-10-01T19:17:58.245Z,7.33
2022-10-01T19:20:30.567Z,6.75
2022-10-01T19:23:10.631Z,4.68
2022-10-01T19:25:47.405Z,5.68
2022-10-01T19:28:22.503Z,7.10
2022-10-01T19:31:07.380Z,6.07
2022-10-01T19:33:39.641Z,6.88
2022-10-01T19:36:13.534Z,8.18
2022-10-01T19:38:48.118Z,5.90
2022-10-01T19:41:25.491Z,4.72
2022-10-01T19:44:00.796Z,7.67
2022-10-01T19:46:41.021Z,7.40
2022-10-01T19:49:08.656Z,4.60
2022-10-01T19:51:48.361Z,5.05
2022-10-01T19:54:18.262Z,4.65
2022-10-01T19:56:48.566Z,5.23
2022-10-01T19:59:19.811Z,5.78
2022-10-01T20:01:54.400Z,3.55
2022-10-01T20:04:45.788Z,11.65
2022-10-01T20:07:21.763Z,3.95
2022-10-01T20:10:16.343Z,6.70
2022-10-01T20:13:07.218Z,7.55
2022-10-01T20:15:42.363Z,8.40
2022-10-01T20:18:41.532Z,7.80
2022-10-01T20:21:13.627Z,7.75
2022-10-01T20:23:53.364Z,5.83
2022-10-01T20:26:37.620Z,7.18
2022-10-01T20:29:17.627Z,4.28
2022-10-01T20:32:03.388Z,2.28
2022-10-01T20:34:56.879Z,8.68
2022-10-01T20:37:52.300Z,5.40
2022-10-01T20:40:24.959Z,3.17
2022-10-01T20:42:57.638Z,4.78
2022-10-01T20:45:29.911Z,8.15
2022-10-01T20:48:01.546Z,5.97
2022-10-01T20:50:38.578Z,8.23
2022-10-01T20:53:15.022Z,5.20
2022-10-01T20:55:50.629Z,3.75
2022-10-01T20:58:24.839Z,9.60
2022-10-01T21:00:59.588Z,6.57
2022-10-01T21:03:55.244Z,8.13
2022-10-01T21:06:30.023Z,4.60
2022-10-01T21:09:17.873Z,4.60
2022-10-01T21:11:58.380Z,3.47
2022-10-01T21:14:46.582Z,6.97
2022-10-01T21:17:23.192Z,7.93
2022-10-01T21:20:11.555Z,8.82
2022-10-01T21:23:15.820Z,10.38
2022-10-01T21:25:51.396Z,14.00
2022-10-01T21:28:39.652Z,10.90
2022-10-01T21:31:13.024Z,18.97
2022-10-01T21:33:54.122Z,8.68
2022-10-01T21:36:52.370Z,9.27
2022-10-01T21:39:28.862Z,8.10
2022-10-01T21:42:11.465Z,15.75
2022-10-01T21:45:11.882Z,17.70
2022-10-01T21:48:11.210Z,8.05
2022-10-01T21:50:51.399Z,8.55
2022-10-01T21:53:34.341Z,8.27
2022-10-01T21:56:35.517Z,8.63
2022-10-01T21:59:07.463Z,4.93
2022-10-01T22:01:49.676Z,12.25
2022-10-01T22:04:32.923Z,12.10
2022-10-01T22:07:08.736Z,13.82
2022-10-01T22:09:43.233Z,10.77
2022-10-01T22:12:10.912Z,10.10
2022-10-01T22:14:38.634Z,10.98
2022-10-01T22:17:17.595Z,12.82
2022-10-01T22:19:51.133Z,10.63
2022-10-01T22:22:23.973Z,12.60
2022-10-01T22:24:53.153Z,13.00
2022-10-01T22:27:37.169Z,10.82
2022-10-01T22:30:17.524Z,20.35
2022-10-01T22:33:05.542Z,10.75
2022-10-01T22:35:51.337Z,16.58
2022-10-01T22:38:32.952Z,16.37
2022-10-01T22:41:17.043Z,16.02
2022-10-01T22:43:45.806Z,13.02
2022-10-01T22:46:46.519Z,19.33
2022-10-01T22:49:54.613Z,14.55
2022-10-01T22:52:42.728Z,10.60
2022-10-01T22:55:12.004Z,8.13
2022-10-01T22:58:23.037Z,7.18
2022-10-01T23:01:00.654Z,7.15
2022-10-01T23:03:50.000Z,8.20
2022-10-01T23:06:45.443Z,4.17
2022-10-01T23:09:24.852Z,9.65
2022-10-01T23:12:09.242Z,7.85
2022-10-01T23:14:57.227Z,11.52
2022-10-01T23:17:36.351Z,12.07
2022-10-01T23:20:16.398Z,13.47
2022-10-01T23:22:54.575Z,13.27
2022-10-01T23:25:49.478Z,16.55
2022-10-01T23:28:27.706Z,10.88
2022-10-01T23:31:40.319Z,15.55
2022-10-01T23:34:28.497Z,4.50
2022-10-01T23:37:23.684Z,9.95
2022-10-01T23:39:58.776Z,5.45
2022-10-01T23:42:37.753Z,7.80
2022-10-01T23:45:52.671Z,9.80
2022-10-01T23:48:28.340Z,7.63
2022-10-01T23:51:07.128Z,8.23
2022-10-01T23:53:53.696Z,4.50
2022-10-01T23:56:43.225Z,5.30
2022-10-01T23:59:23.642Z,6.22
